sensor_id;sensor_type;location;lat;lon;timestamp;P1;durP1;ratioP1;P2;durP2;ratioP2
42332;SDS011;27984;51.476;5.702;2023-07-09T00:01:40;17.58;;;10.57;;
42332;SDS011;27984;51.476;5.702;2023-07-09T00:04:10;17.77;;;10.65;;
42332;SDS011;27984;51.476;5.702;2023-07-09T00:06:36;18.45;;;10.45;;
42332;SDS011;27984;51.476;5.702;2023-07-09T00:09:02;20.20;;;10.65;;
42332;SDS011;27984;51.476;5.702;2023-07-09T00:11:29;15.10;;;10.10;;
42332;SDS011;27984;51.476;5.702;2023-07-09T00:13:55;16.35;;;10.45;;
42332;SDS011;27984;51.476;5.702;2023-07-09T00:16:23;16.63;;;10.60;;
42332;SDS011;27984;51.476;5.702;2023-07-09T00:18:49;16.63;;;10.50;;
42332;SDS011;27984;51.476;5.702;2023-07-09T00:21:19;19.55;;;10.40;;
42332;SDS011;27984;51.476;5.702;2023-07-09T00:23:45;16.60;;;10.23;;
42332;SDS011;27984;51.476;5.702;2023-07-09T00:26:14;17.45;;;10.27;;
42332;SDS011;27984;51.476;5.702;2023-07-09T00:28:41;16.52;;;10.15;;
42332;SDS011;27984;51.476;5.702;2023-07-09T00:31:10;17.40;;;10.60;;
42332;SDS011;27984;51.476;5.702;2023-07-09T00:33:38;15.88;;;10.65;;
42332;SDS011;27984;51.476;5.702;2023-07-09T00:36:05;17.02;;;10.43;;
42332;SDS011;27984;51.476;5.702;2023-07-09T00:38:39;14.10;;;10.27;;
42332;SDS011;27984;51.476;5.702;2023-07-09T00:41:08;15.32;;;10.10;;
42332;SDS011;27984;51.476;5.702;2023-07-09T00:43:42;15.20;;;10.23;;
42332;SDS011;27984;51.476;5.702;2023-07-09T00:49:27;17.27;;;10.50;;
42332;SDS011;27984;51.476;5.702;2023-07-09T00:51:45;16.38;;;10.30;;
42332;SDS011;27984;51.476;5.702;2023-07-09T00:54:21;17.95;;;10.75;;
42332;SDS011;27984;51.476;5.702;2023-07-09T00:56:50;19.58;;;10.65;;
42332;SDS011;27984;51.476;5.702;2023-07-09T00:59:19;16.85;;;11.57;;
42332;SDS011;27984;51.476;5.702;2023-07-09T01:01:46;20.95;;;11.70;;
42332;SDS011;27984;51.476;5.702;2023-07-09T01:04:15;16.17;;;11.57;;
42332;SDS011;27984;51.476;5.702;2023-07-09T01:06:47;18.00;;;11.43;;
42332;SDS011;27984;51.476;5.702;2023-07-09T01:09:14;19.58;;;12.63;;
42332;SDS011;27984;51.476;5.702;2023-07-09T01:11:40;25.48;;;12.55;;
42332;SDS011;27984;51.476;5.702;2023-07-09T01:14:07;22.23;;;13.25;;
42332;SDS011;27984;51.476;5.702;2023-07-09T01:16:34;19.95;;;13.00;;
42332;SDS011;27984;51.476;5.702;2023-07-09T01:19:02;22.65;;;13.23;;
42332;SDS011;27984;51.476;5.702;2023-07-09T01:21:29;19.65;;;13.35;;
42332;SDS011;27984;51.476;5.702;2023-07-09T01:23:55;18.38;;;12.70;;
42332;SDS011;27984;51.476;5.702;2023-07-09T01:26:23;20.98;;;12.57;;
42332;SDS011;27984;51.476;5.702;2023-07-09T01:28:50;23.75;;;13.70;;
42332;SDS011;27984;51.476;5.702;2023-07-09T01:31:16;21.65;;;12.88;;
42332;SDS011;27984;51.476;5.702;2023-07-09T01:33:42;21.90;;;13.27;;
42332;SDS011;27984;51.476;5.702;2023-07-09T01:36:10;20.55;;;12.75;;
42332;SDS011;27984;51.476;5.702;2023-07-09T01:38:38;21.85;;;12.32;;
42332;SDS011;27984;51.476;5.702;2023-07-09T01:41:04;19.20;;;12.43;;
42332;SDS011;27984;51.476;5.702;2023-07-09T01:43:30;21.80;;;11.98;;
42332;SDS011;27984;51.476;5.702;2023-07-09T01:45:56;20.27;;;11.70;;
42332;SDS011;27984;51.476;5.702;2023-07-09T01:48:24;25.08;;;13.05;;
42332;SDS011;27984;51.476;5.702;2023-07-09T01:50:51;21.42;;;13.07;;
42332;SDS011;27984;51.476;5.702;2023-07-09T01:53:18;19.85;;;12.50;;
42332;SDS011;27984;51.476;5.702;2023-07-09T01:55:45;18.65;;;13.05;;
42332;SDS011;27984;51.476;5.702;2023-07-09T01:58:11;17.90;;;12.60;;
42332;SDS011;27984;51.476;5.702;2023-07-09T02:00:37;18.63;;;13.15;;
42332;SDS011;27984;51.476;5.702;2023-07-09T02:03:06;21.63;;;13.25;;
42332;SDS011;27984;51.476;5.702;2023-07-09T02:05:32;20.15;;;13.05;;
42332;SDS011;27984;51.476;5.702;2023-07-09T02:07:58;21.23;;;13.10;;
42332;SDS011;27984;51.476;5.702;2023-07-09T02:10:25;21.58;;;13.25;;
42332;SDS011;27984;51.476;5.702;2023-07-09T02:12:51;18.15;;;13.00;;
42332;SDS011;27984;51.476;5.702;2023-07-09T02:15:17;20.98;;;12.88;;
42332;SDS011;27984;51.476;5.702;2023-07-09T02:17:43;21.40;;;13.82;;
42332;SDS011;27984;51.476;5.702;2023-07-09T02:20:09;25.80;;;14.25;;
42332;SDS011;27984;51.476;5.702;2023-07-09T02:22:36;21.05;;;13.68;;
42332;SDS011;27984;51.476;5.702;2023-07-09T02:25:02;29.88;;;14.38;;
42332;SDS011;27984;51.476;5.702;2023-07-09T02:27:28;20.20;;;14.10;;
42332;SDS011;27984;51.476;5.702;2023-07-09T02:29:54;24.10;;;14.50;;
42332;SDS011;27984;51.476;5.702;2023-07-09T02:32:21;21.55;;;14.57;;
42332;SDS011;27984;51.476;5.702;2023-07-09T02:34:48;21.77;;;13.98;;
42332;SDS011;27984;51.476;5.702;2023-07-09T02:37:18;23.83;;;14.55;;
42332;SDS011;27984;51.476;5.702;2023-07-09T02:39:44;24.33;;;14.98;;
42332;SDS011;27984;51.476;5.702;2023-07-09T02:42:10;21.52;;;14.82;;
42332;SDS011;27984;51.476;5.702;2023-07-09T02:44:37;24.10;;;14.88;;
42332;SDS011;27984;51.476;5.702;2023-07-09T02:47:03;26.85;;;15.07;;
42332;SDS011;27984;51.476;5.702;2023-07-09T02:49:29;25.15;;;15.82;;
42332;SDS011;27984;51.476;5.702;2023-07-09T02:51:55;24.23;;;15.48;;
42332;SDS011;27984;51.476;5.702;2023-07-09T02:54:21;24.58;;;15.68;;
42332;SDS011;27984;51.476;5.702;2023-07-09T02:56:47;26.05;;;16.42;;
42332;SDS011;27984;51.476;5.702;2023-07-09T02:59:13;24.90;;;15.93;;
42332;SDS011;27984;51.476;5.702;2023-07-09T03:01:39;21.15;;;15.32;;
42332;SDS011;27984;51.476;5.702;2023-07-09T03:04:06;21.27;;;14.50;;
42332;SDS011;27984;51.476;5.702;2023-07-09T03:06:33;24.38;;;14.82;;
42332;SDS011;27984;51.476;5.702;2023-07-09T03:08:59;22.77;;;14.50;;
42332;SDS011;27984;51.476;5.702;2023-07-09T03:11:27;22.20;;;14.95;;
42332;SDS011;27984;51.476;5.702;2023-07-09T03:13:53;22.95;;;14.63;;
42332;SDS011;27984;51.476;5.702;2023-07-09T03:16:19;26.73;;;15.45;;
42332;SDS011;27984;51.476;5.702;2023-07-09T03:18:45;23.35;;;14.63;;
42332;SDS011;27984;51.476;5.702;2023-07-09T03:21:11;22.27;;;15.13;;
42332;SDS011;27984;51.476;5.702;2023-07-09T03:23:37;24.20;;;14.15;;
42332;SDS011;27984;51.476;5.702;2023-07-09T03:26:03;20.90;;;13.68;;
42332;SDS011;27984;51.476;5.702;2023-07-09T03:28:32;23.73;;;14.07;;
42332;SDS011;27984;51.476;5.702;2023-07-09T03:30:59;19.83;;;13.48;;
42332;SDS011;27984;51.476;5.702;2023-07-09T03:33:25;22.77;;;13.80;;
42332;SDS011;27984;51.476;5.702;2023-07-09T03:35:51;21.30;;;13.57;;
42332;SDS011;27984;51.476;5.702;2023-07-09T03:38:17;23.35;;;14.23;;
42332;SDS011;27984;51.476;5.702;2023-07-09T03:40:43;22.58;;;14.18;;
42332;SDS011;27984;51.476;5.702;2023-07-09T03:43:10;21.73;;;15.45;;
42332;SDS011;27984;51.476;5.702;2023-07-09T03:45:36;24.23;;;14.25;;
42332;SDS011;27984;51.476;5.702;2023-07-09T03:48:03;22.40;;;14.35;;
42332;SDS011;27984;51.476;5.702;2023-07-09T03:50:30;21.00;;;14.95;;
42332;SDS011;27984;51.476;5.702;2023-07-09T03:52:56;21.42;;;15.27;;
42332;SDS011;27984;51.476;5.702;2023-07-09T03:55:22;21.33;;;14.93;;
42332;SDS011;27984;51.476;5.702;2023-07-09T03:57:51;22.48;;;14.70;;
42332;SDS011;27984;51.476;5.702;2023-07-09T04:00:17;22.65;;;14.95;;
42332;SDS011;27984;51.476;5.702;2023-07-09T04:02:43;20.00;;;15.32;;
42332;SDS011;27984;51.476;5.702;2023-07-09T04:05:09;25.75;;;16.73;;
42332;SDS011;27984;51.476;5.702;2023-07-09T04:07:35;25.23;;;15.40;;
42332;SDS011;27984;51.476;5.702;2023-07-09T04:10:01;21.73;;;14.73;;
42332;SDS011;27984;51.476;5.702;2023-07-09T04:12:27;26.25;;;14.93;;
42332;SDS011;27984;51.476;5.702;2023-07-09T04:14:53;28.30;;;15.95;;
42332;SDS011;27984;51.476;5.702;2023-07-09T04:17:19;22.83;;;15.77;;
42332;SDS011;27984;51.476;5.702;2023-07-09T04:19:47;29.63;;;16.95;;
42332;SDS011;27984;51.476;5.702;2023-07-09T04:22:13;21.20;;;15.18;;
42332;SDS011;27984;51.476;5.702;2023-07-09T04:24:40;23.88;;;15.90;;
42332;SDS011;27984;51.476;5.702;2023-07-09T04:27:06;23.13;;;15.40;;
42332;SDS011;27984;51.476;5.702;2023-07-09T04:29:32;23.83;;;15.30;;
42332;SDS011;27984;51.476;5.702;2023-07-09T04:32:03;26.45;;;16.25;;
42332;SDS011;27984;51.476;5.702;2023-07-09T04:34:30;22.13;;;15.98;;
42332;SDS011;27984;51.476;5.702;2023-07-09T04:36:56;21.77;;;16.00;;
42332;SDS011;27984;51.476;5.702;2023-07-09T04:39:21;22.38;;;15.13;;
42332;SDS011;27984;51.476;5.702;2023-07-09T04:41:47;27.05;;;16.20;;
42332;SDS011;27984;51.476;5.702;2023-07-09T04:44:14;24.05;;;15.13;;
42332;SDS011;27984;51.476;5.702;2023-07-09T04:46:40;25.70;;;16.13;;
42332;SDS011;27984;51.476;5.702;2023-07-09T04:49:06;23.55;;;16.35;;
42332;SDS011;27984;51.476;5.702;2023-07-09T04:51:32;23.17;;;15.68;;
42332;SDS011;27984;51.476;5.702;2023-07-09T04:53:58;24.65;;;16.38;;
42332;SDS011;27984;51.476;5.702;2023-07-09T04:56:29;24.30;;;15.00;;
42332;SDS011;27984;51.476;5.702;2023-07-09T04:58:55;22.65;;;15.93;;
42332;SDS011;27984;51.476;5.702;2023-07-09T05:01:21;21.33;;;16.05;;
42332;SDS011;27984;51.476;5.702;2023-07-09T05:03:47;21.30;;;15.07;;
42332;SDS011;27984;51.476;5.702;2023-07-09T05:06:13;27.77;;;16.13;;
42332;SDS011;27984;51.476;5.702;2023-07-09T05:08:39;26.80;;;14.90;;
42332;SDS011;27984;51.476;5.702;2023-07-09T05:11:06;23.55;;;15.15;;
42332;SDS011;27984;51.476;5.702;2023-07-09T05:13:32;26.67;;;16.75;;
42332;SDS011;27984;51.476;5.702;2023-07-09T05:15:58;29.92;;;17.15;;
42332;SDS011;27984;51.476;5.702;2023-07-09T05:18:24;23.42;;;15.13;;
42332;SDS011;27984;51.476;5.702;2023-07-09T05:20:50;21.70;;;16.20;;
42332;SDS011;27984;51.476;5.702;2023-07-09T05:23:16;22.90;;;15.65;;
42332;SDS011;27984;51.476;5.702;2023-07-09T05:25:42;20.75;;;15.13;;
42332;SDS011;27984;51.476;5.702;2023-07-09T05:28:08;26.23;;;14.82;;
42332;SDS011;27984;51.476;5.702;2023-07-09T05:30:34;26.98;;;15.25;;
42332;SDS011;27984;51.476;5.702;2023-07-09T05:33:00;23.30;;;16.08;;
42332;SDS011;27984;51.476;5.702;2023-07-09T05:35:26;27.67;;;14.65;;
42332;SDS011;27984;51.476;5.702;2023-07-09T05:37:53;26.95;;;15.25;;
42332;SDS011;27984;51.476;5.702;2023-07-09T05:40:19;24.95;;;14.68;;
42332;SDS011;27984;51.476;5.702;2023-07-09T05:42:46;29.75;;;15.55;;
42332;SDS011;27984;51.476;5.702;2023-07-09T05:45:12;24.02;;;14.43;;
42332;SDS011;27984;51.476;5.702;2023-07-09T05:47:38;25.10;;;13.52;;
42332;SDS011;27984;51.476;5.702;2023-07-09T05:50:04;19.73;;;14.18;;
42332;SDS011;27984;51.476;5.702;2023-07-09T05:52:30;18.42;;;12.38;;
42332;SDS011;27984;51.476;5.702;2023-07-09T05:54:57;19.02;;;12.85;;
42332;SDS011;27984;51.476;5.702;2023-07-09T05:57:23;27.52;;;12.32;;
42332;SDS011;27984;51.476;5.702;2023-07-09T05:59:49;19.60;;;12.52;;
42332;SDS011;27984;51.476;5.702;2023-07-09T06:02:17;19.08;;;11.27;;
42332;SDS011;27984;51.476;5.702;2023-07-09T06:04:43;21.30;;;12.10;;
42332;SDS011;27984;51.476;5.702;2023-07-09T06:07:10;15.00;;;10.85;;
42332;SDS011;27984;51.476;5.702;2023-07-09T06:09:37;15.40;;;10.10;;
42332;SDS011;27984;51.476;5.702;2023-07-09T06:12:03;17.52;;;11.73;;
42332;SDS011;27984;51.476;5.702;2023-07-09T06:14:30;18.67;;;10.90;;
42332;SDS011;27984;51.476;5.702;2023-07-09T06:16:57;18.05;;;11.18;;
42332;SDS011;27984;51.476;5.702;2023-07-09T06:19:23;18.77;;;10.70;;
42332;SDS011;27984;51.476;5.702;2023-07-09T06:21:48;17.35;;;11.00;;
42332;SDS011;27984;51.476;5.702;2023-07-09T06:24:14;15.40;;;9.63;;
42332;SDS011;27984;51.476;5.702;2023-07-09T06:26:40;15.27;;;10.48;;
42332;SDS011;27984;51.476;5.702;2023-07-09T06:29:06;15.32;;;9.95;;
42332;SDS011;27984;51.476;5.702;2023-07-09T06:31:32;15.20;;;10.13;;
42332;SDS011;27984;51.476;5.702;2023-07-09T06:33:58;16.90;;;10.35;;
42332;SDS011;27984;51.476;5.702;2023-07-09T06:36:24;17.02;;;10.77;;
42332;SDS011;27984;51.476;5.702;2023-07-09T06:38:50;17.10;;;10.23;;
42332;SDS011;27984;51.476;5.702;2023-07-09T06:41:16;15.38;;;9.82;;
42332;SDS011;27984;51.476;5.702;2023-07-09T06:43:42;14.20;;;9.15;;
42332;SDS011;27984;51.476;5.702;2023-07-09T06:46:10;15.77;;;8.73;;
42332;SDS011;27984;51.476;5.702;2023-07-09T06:48:37;15.43;;;8.73;;
42332;SDS011;27984;51.476;5.702;2023-07-09T06:51:03;12.75;;;8.75;;
42332;SDS011;27984;51.476;5.702;2023-07-09T06:53:29;12.75;;;8.95;;
42332;SDS011;27984;51.476;5.702;2023-07-09T06:55:56;14.20;;;8.73;;
42332;SDS011;27984;51.476;5.702;2023-07-09T06:58:24;14.52;;;8.18;;
42332;SDS011;27984;51.476;5.702;2023-07-09T07:00:52;12.50;;;8.35;;
42332;SDS011;27984;51.476;5.702;2023-07-09T07:03:18;12.98;;;7.93;;
42332;SDS011;27984;51.476;5.702;2023-07-09T07:05:45;12.13;;;8.57;;
42332;SDS011;27984;51.476;5.702;2023-07-09T07:08:13;11.93;;;7.53;;
42332;SDS011;27984;51.476;5.702;2023-07-09T07:10:40;12.07;;;7.95;;
42332;SDS011;27984;51.476;5.702;2023-07-09T07:13:06;13.40;;;7.68;;
42332;SDS011;27984;51.476;5.702;2023-07-09T07:15:32;11.35;;;7.47;;
42332;SDS011;27984;51.476;5.702;2023-07-09T07:17:58;12.50;;;7.22;;
42332;SDS011;27984;51.476;5.702;2023-07-09T07:20:24;10.55;;;6.57;;
42332;SDS011;27984;51.476;5.702;2023-07-09T07:22:50;11.13;;;7.00;;
42332;SDS011;27984;51.476;5.702;2023-07-09T07:25:16;11.57;;;6.85;;
42332;SDS011;27984;51.476;5.702;2023-07-09T07:27:42;14.65;;;6.65;;
42332;SDS011;27984;51.476;5.702;2023-07-09T07:30:08;13.07;;;6.85;;
42332;SDS011;27984;51.476;5.702;2023-07-09T07:32:35;10.10;;;6.68;;
42332;SDS011;27984;51.476;5.702;2023-07-09T07:35:02;11.52;;;6.07;;
42332;SDS011;27984;51.476;5.702;2023-07-09T07:37:28;9.52;;;6.90;;
42332;SDS011;27984;51.476;5.702;2023-07-09T07:39:53;11.18;;;6.20;;
42332;SDS011;27984;51.476;5.702;2023-07-09T07:42:19;9.35;;;5.57;;
42332;SDS011;27984;51.476;5.702;2023-07-09T07:44:45;9.45;;;6.07;;
42332;SDS011;27984;51.476;5.702;2023-07-09T07:47:11;10.65;;;5.95;;
42332;SDS011;27984;51.476;5.702;2023-07-09T07:49:37;7.40;;;5.38;;
42332;SDS011;27984;51.476;5.702;2023-07-09T07:52:04;8.70;;;6.13;;
42332;SDS011;27984;51.476;5.702;2023-07-09T07:54:30;11.00;;;5.07;;
42332;SDS011;27984;51.476;5.702;2023-07-09T07:56:57;10.90;;;4.82;;
42332;SDS011;27984;51.476;5.702;2023-07-09T07:59:23;9.02;;;4.65;;
42332;SDS011;27984;51.476;5.702;2023-07-09T08:01:49;8.98;;;4.93;;
42332;SDS011;27984;51.476;5.702;2023-07-09T08:04:15;9.73;;;5.03;;
42332;SDS011;27984;51.476;5.702;2023-07-09T08:06:41;9.05;;;5.22;;
42332;SDS011;27984;51.476;5.702;2023-07-09T08:09:07;15.88;;;5.10;;
42332;SDS011;27984;51.476;5.702;2023-07-09T08:11:33;8.90;;;4.60;;
42332;SDS011;27984;51.476;5.702;2023-07-09T08:14:00;10.13;;;4.60;;
42332;SDS011;27984;51.476;5.702;2023-07-09T08:16:26;11.70;;;4.72;;
42332;SDS011;27984;51.476;5.702;2023-07-09T08:18:52;7.10;;;4.13;;
42332;SDS011;27984;51.476;5.702;2023-07-09T08:21:18;10.75;;;4.70;;
42332;SDS011;27984;51.476;5.702;2023-07-09T08:23:44;7.15;;;4.97;;
42332;SDS011;27984;51.476;5.702;2023-07-09T08:26:10;6.75;;;4.70;;
42332;SDS011;27984;51.476;5.702;2023-07-09T08:28:37;7.80;;;4.88;;
42332;SDS011;27984;51.476;5.702;2023-07-09T08:31:03;7.38;;;4.53;;
42332;SDS011;27984;51.476;5.702;2023-07-09T08:33:29;5.88;;;4.45;;
42332;SDS011;27984;51.476;5.702;2023-07-09T08:35:55;9.23;;;4.65;;
42332;SDS011;27984;51.476;5.702;2023-07-09T08:38:21;7.85;;;4.80;;
42332;SDS011;27984;51.476;5.702;2023-07-09T08:40:56;8.23;;;4.63;;
42332;SDS011;27984;51.476;5.702;2023-07-09T08:51:52;8.40;;;4.93;;
42332;SDS011;27984;51.476;5.702;2023-07-09T08:54:40;11.82;;;5.10;;
42332;SDS011;27984;51.476;5.702;2023-07-09T08:57:19;10.80;;;4.75;;
42332;SDS011;27984;51.476;5.702;2023-07-09T08:59:46;10.88;;;5.13;;
42332;SDS011;27984;51.476;5.702;2023-07-09T09:02:29;8.45;;;5.00;;
42332;SDS011;27984;51.476;5.702;2023-07-09T09:04:56;7.72;;;4.80;;
42332;SDS011;27984;51.476;5.702;2023-07-09T09:07:31;11.48;;;5.45;;
42332;SDS011;27984;51.476;5.702;2023-07-09T09:10:00;6.60;;;4.95;;
42332;SDS011;27984;51.476;5.702;2023-07-09T09:12:29;10.02;;;5.03;;
42332;SDS011;27984;51.476;5.702;2023-07-09T09:14:58;8.23;;;4.70;;
42332;SDS011;27984;51.476;5.702;2023-07-09T09:17:26;10.98;;;4.95;;
42332;SDS011;27984;51.476;5.702;2023-07-09T09:19:55;13.68;;;5.22;;
42332;SDS011;27984;51.476;5.702;2023-07-09T09:22:23;8.40;;;4.88;;
42332;SDS011;27984;51.476;5.702;2023-07-09T09:25:02;11.52;;;4.60;;
42332;SDS011;27984;51.476;5.702;2023-07-09T09:27:29;8.52;;;4.72;;
42332;SDS011;27984;51.476;5.702;2023-07-09T09:29:55;9.50;;;4.80;;
42332;SDS011;27984;51.476;5.702;2023-07-09T09:32:30;9.23;;;4.75;;
42332;SDS011;27984;51.476;5.702;2023-07-09T09:35:10;8.93;;;4.55;;
42332;SDS011;27984;51.476;5.702;2023-07-09T09:37:36;8.05;;;4.43;;
42332;SDS011;27984;51.476;5.702;2023-07-09T09:40:02;13.02;;;4.78;;
42332;SDS011;27984;51.476;5.702;2023-07-09T09:42:29;8.80;;;4.32;;
42332;SDS011;27984;51.476;5.702;2023-07-09T09:44:55;10.25;;;4.18;;
42332;SDS011;27984;51.476;5.702;2023-07-09T09:47:21;11.70;;;4.68;;
42332;SDS011;27984;51.476;5.702;2023-07-09T09:49:52;6.78;;;4.40;;
42332;SDS011;27984;51.476;5.702;2023-07-09T09:52:18;6.88;;;4.13;;
42332;SDS011;27984;51.476;5.702;2023-07-09T09:54:49;8.35;;;4.38;;
42332;SDS011;27984;51.476;5.702;2023-07-09T09:57:19;6.68;;;4.15;;
42332;SDS011;27984;51.476;5.702;2023-07-09T09:59:45;10.02;;;4.65;;
42332;SDS011;27984;51.476;5.702;2023-07-09T10:02:22;12.57;;;4.60;;
42332;SDS011;27984;51.476;5.702;2023-07-09T10:04:48;9.05;;;4.00;;
42332;SDS011;27984;51.476;5.702;2023-07-09T10:07:22;7.13;;;4.00;;
42332;SDS011;27984;51.476;5.702;2023-07-09T10:09:53;10.10;;;4.10;;
42332;SDS011;27984;51.476;5.702;2023-07-09T10:14:53;5.50;;;3.95;;
42332;SDS011;27984;51.476;5.702;2023-07-09T10:17:37;11.00;;;4.13;;
42332;SDS011;27984;51.476;5.702;2023-07-09T10:20:08;7.70;;;3.92;;
42332;SDS011;27984;51.476;5.702;2023-07-09T10:25:11;8.63;;;4.00;;
42332;SDS011;27984;51.476;5.702;2023-07-09T10:27:56;7.38;;;4.03;;
42332;SDS011;27984;51.476;5.702;2023-07-09T10:30:35;7.53;;;3.90;;
42332;SDS011;27984;51.476;5.702;2023-07-09T10:33:08;6.75;;;3.90;;
42332;SDS011;27984;51.476;5.702;2023-07-09T10:35:38;6.47;;;3.97;;
42332;SDS011;27984;51.476;5.702;2023-07-09T10:38:08;8.95;;;4.65;;
42332;SDS011;27984;51.476;5.702;2023-07-09T10:40:45;18.33;;;4.72;;
42332;SDS011;27984;51.476;5.702;2023-07-09T10:43:14;6.25;;;4.00;;
42332;SDS011;27984;51.476;5.702;2023-07-09T10:45:53;5.55;;;3.72;;
42332;SDS011;27984;51.476;5.702;2023-07-09T10:48:34;8.88;;;3.80;;
42332;SDS011;27984;51.476;5.702;2023-07-09T10:51:01;8.23;;;3.80;;
42332;SDS011;27984;51.476;5.702;2023-07-09T10:56:01;12.02;;;3.80;;
42332;SDS011;27984;51.476;5.702;2023-07-09T10:58:31;7.53;;;3.72;;
42332;SDS011;27984;51.476;5.702;2023-07-09T11:01:00;6.53;;;3.78;;
42332;SDS011;27984;51.476;5.702;2023-07-09T11:03:32;6.90;;;3.72;;
42332;SDS011;27984;51.476;5.702;2023-07-09T11:05:59;6.95;;;3.92;;
42332;SDS011;27984;51.476;5.702;2023-07-09T11:08:28;7.15;;;3.58;;
42332;SDS011;27984;51.476;5.702;2023-07-09T11:10:58;6.90;;;4.05;;
42332;SDS011;27984;51.476;5.702;2023-07-09T11:13:27;7.90;;;3.95;;
42332;SDS011;27984;51.476;5.702;2023-07-09T11:15:55;6.75;;;3.75;;
42332;SDS011;27984;51.476;5.702;2023-07-09T11:18:26;4.90;;;3.42;;
42332;SDS011;27984;51.476;5.702;2023-07-09T11:23:53;7.38;;;3.70;;
42332;SDS011;27984;51.476;5.702;2023-07-09T11:28:55;7.18;;;3.97;;
42332;SDS011;27984;51.476;5.702;2023-07-09T11:31:34;10.02;;;4.60;;
42332;SDS011;27984;51.476;5.702;2023-07-09T11:34:35;7.38;;;4.20;;
42332;SDS011;27984;51.476;5.702;2023-07-09T11:42:02;7.53;;;4.30;;
42332;SDS011;27984;51.476;5.702;2023-07-09T11:44:32;7.38;;;4.47;;
42332;SDS011;27984;51.476;5.702;2023-07-09T11:49:32;8.27;;;4.40;;
42332;SDS011;27984;51.476;5.702;2023-07-09T11:52:00;8.88;;;4.03;;
42332;SDS011;27984;51.476;5.702;2023-07-09T11:54:27;5.95;;;4.05;;
42332;SDS011;27984;51.476;5.702;2023-07-09T11:56:54;7.75;;;4.15;;
42332;SDS011;27984;51.476;5.702;2023-07-09T11:59:21;7.35;;;4.30;;
42332;SDS011;27984;51.476;5.702;2023-07-09T12:01:47;8.48;;;4.75;;
42332;SDS011;27984;51.476;5.702;2023-07-09T12:04:18;8.80;;;4.55;;
42332;SDS011;27984;51.476;5.702;2023-07-09T12:06:45;7.65;;;3.83;;
42332;SDS011;27984;51.476;5.702;2023-07-09T12:09:20;7.35;;;3.75;;
42332;SDS011;27984;51.476;5.702;2023-07-09T12:11:47;9.93;;;3.63;;
42332;SDS011;27984;51.476;5.702;2023-07-09T12:14:16;6.90;;;3.90;;
42332;SDS011;27984;51.476;5.702;2023-07-09T12:16:43;5.85;;;3.25;;
42332;SDS011;27984;51.476;5.702;2023-07-09T12:19:13;5.20;;;3.22;;
42332;SDS011;27984;51.476;5.702;2023-07-09T12:21:40;8.75;;;3.78;;
42332;SDS011;27984;51.476;5.702;2023-07-09T12:24:16;9.40;;;3.95;;
42332;SDS011;27984;51.476;5.702;2023-07-09T12:26:46;10.00;;;3.63;;
42332;SDS011;27984;51.476;5.702;2023-07-09T12:29:13;7.28;;;3.95;;
42332;SDS011;27984;51.476;5.702;2023-07-09T12:31:40;6.60;;;4.07;;
42332;SDS011;27984;51.476;5.702;2023-07-09T12:34:10;7.50;;;3.65;;
42332;SDS011;27984;51.476;5.702;2023-07-09T12:36:37;5.82;;;3.60;;
42332;SDS011;27984;51.476;5.702;2023-07-09T12:39:05;6.05;;;3.63;;
42332;SDS011;27984;51.476;5.702;2023-07-09T12:41:35;6.50;;;3.42;;
42332;SDS011;27984;51.476;5.702;2023-07-09T12:44:01;7.95;;;3.35;;
42332;SDS011;27984;51.476;5.702;2023-07-09T12:46:28;7.05;;;3.40;;
42332;SDS011;27984;51.476;5.702;2023-07-09T12:48:55;8.27;;;3.47;;
42332;SDS011;27984;51.476;5.702;2023-07-09T12:51:22;7.43;;;3.60;;
42332;SDS011;27984;51.476;5.702;2023-07-09T12:53:59;10.25;;;4.10;;
42332;SDS011;27984;51.476;5.702;2023-07-09T12:56:25;7.57;;;4.75;;
42332;SDS011;27984;51.476;5.702;2023-07-09T12:58:56;9.15;;;4.32;;
42332;SDS011;27984;51.476;5.702;2023-07-09T13:01:22;8.27;;;4.80;;
42332;SDS011;27984;51.476;5.702;2023-07-09T13:03:54;6.18;;;4.50;;
42332;SDS011;27984;51.476;5.702;2023-07-09T13:06:26;7.70;;;4.65;;
42332;SDS011;27984;51.476;5.702;2023-07-09T13:08:55;5.97;;;4.60;;
42332;SDS011;27984;51.476;5.702;2023-07-09T13:14:17;7.97;;;4.82;;
42332;SDS011;27984;51.476;5.702;2023-07-09T13:16:49;10.00;;;4.75;;
42332;SDS011;27984;51.476;5.702;2023-07-09T13:19:16;10.60;;;5.05;;
42332;SDS011;27984;51.476;5.702;2023-07-09T13:21:42;9.10;;;5.15;;
42332;SDS011;27984;51.476;5.702;2023-07-09T13:24:17;7.28;;;5.90;;
42332;SDS011;27984;51.476;5.702;2023-07-09T13:26:45;10.40;;;6.75;;
42332;SDS011;27984;51.476;5.702;2023-07-09T13:29:15;15.82;;;7.72;;
42332;SDS011;27984;51.476;5.702;2023-07-09T13:31:43;10.57;;;7.03;;
42332;SDS011;27984;51.476;5.702;2023-07-09T13:34:26;10.25;;;7.25;;
42332;SDS011;27984;51.476;5.702;2023-07-09T13:36:53;12.00;;;8.10;;
42332;SDS011;27984;51.476;5.702;2023-07-09T13:39:21;14.35;;;8.65;;
42332;SDS011;27984;51.476;5.702;2023-07-09T13:41:47;17.20;;;8.57;;
42332;SDS011;27984;51.476;5.702;2023-07-09T13:44:19;14.10;;;8.75;;
42332;SDS011;27984;51.476;5.702;2023-07-09T13:46:48;16.55;;;10.15;;
42332;SDS011;27984;51.476;5.702;2023-07-09T13:49:16;15.75;;;9.75;;
42332;SDS011;27984;51.476;5.702;2023-07-09T13:51:43;12.05;;;9.45;;
42332;SDS011;27984;51.476;5.702;2023-07-09T13:54:29;19.10;;;11.23;;
42332;SDS011;27984;51.476;5.702;2023-07-09T13:57:12;26.42;;;12.13;;
42332;SDS011;27984;51.476;5.702;2023-07-09T14:02:20;25.75;;;16.50;;
42332;SDS011;27984;51.476;5.702;2023-07-09T14:04:48;25.85;;;16.92;;
42332;SDS011;27984;51.476;5.702;2023-07-09T14:07:21;25.48;;;16.42;;
42332;SDS011;27984;51.476;5.702;2023-07-09T14:09:48;25.93;;;18.83;;
42332;SDS011;27984;51.476;5.702;2023-07-09T14:12:14;29.95;;;20.20;;
42332;SDS011;27984;51.476;5.702;2023-07-09T14:14:40;36.15;;;20.75;;
42332;SDS011;27984;51.476;5.702;2023-07-09T14:17:09;26.63;;;17.60;;
42332;SDS011;27984;51.476;5.702;2023-07-09T14:19:39;25.98;;;18.08;;
42332;SDS011;27984;51.476;5.702;2023-07-09T14:22:22;20.77;;;15.52;;
42332;SDS011;27984;51.476;5.702;2023-07-09T14:24:49;20.23;;;14.93;;
42332;SDS011;27984;51.476;5.702;2023-07-09T14:27:21;17.17;;;13.18;;
42332;SDS011;27984;51.476;5.702;2023-07-09T14:29:47;20.27;;;13.55;;
42332;SDS011;27984;51.476;5.702;2023-07-09T14:32:26;21.33;;;12.82;;
42332;SDS011;27984;51.476;5.702;2023-07-09T14:34:55;17.77;;;12.15;;
42332;SDS011;27984;51.476;5.702;2023-07-09T14:37:51;14.67;;;11.30;;
42332;SDS011;27984;51.476;5.702;2023-07-09T14:40:18;15.00;;;10.45;;
42332;SDS011;27984;51.476;5.702;2023-07-09T14:42:45;13.82;;;9.45;;
42332;SDS011;27984;51.476;5.702;2023-07-09T14:45:21;16.58;;;9.23;;
42332;SDS011;27984;51.476;5.702;2023-07-09T14:47:51;11.93;;;8.80;;
42332;SDS011;27984;51.476;5.702;2023-07-09T14:50:17;13.88;;;8.48;;
42332;SDS011;27984;51.476;5.702;2023-07-09T14:52:44;12.38;;;8.63;;
42332;SDS011;27984;51.476;5.702;2023-07-09T14:55:18;12.05;;;7.38;;
42332;SDS011;27984;51.476;5.702;2023-07-09T14:57:45;13.60;;;8.90;;
42332;SDS011;27984;51.476;5.702;2023-07-09T15:00:15;18.42;;;7.40;;
42332;SDS011;27984;51.476;5.702;2023-07-09T15:02:42;10.65;;;7.25;;
42332;SDS011;27984;51.476;5.702;2023-07-09T15:05:18;9.05;;;6.40;;
42332;SDS011;27984;51.476;5.702;2023-07-09T15:07:45;11.30;;;6.30;;
42332;SDS011;27984;51.476;5.702;2023-07-09T15:10:14;11.18;;;7.10;;
42332;SDS011;27984;51.476;5.702;2023-07-09T15:12:41;12.95;;;6.70;;
42332;SDS011;27984;51.476;5.702;2023-07-09T15:15:19;11.02;;;6.32;;